createdAt,value
2019-03-29T00:01:26.489Z,15.67
2019-03-29T00:03:55.621Z,13.30
2019-03-29T00:06:23.725Z,15.17
2019-03-29T00:08:51.954Z,16.33
2019-03-29T00:11:20.179Z,17.07
2019-03-29T00:13:48.293Z,14.40
2019-03-29T00:16:16.357Z,14.50
2019-03-29T00:18:44.382Z,15.03
2019-03-29T00:21:13.013Z,13.47
2019-03-29T00:23:42.303Z,14.90
2019-03-29T00:26:10.431Z,15.87
2019-03-29T00:28:38.481Z,17.23
2019-03-29T00:31:06.535Z,17.97
2019-03-29T00:33:34.771Z,19.23
2019-03-29T00:36:02.876Z,15.57
2019-03-29T00:38:31.064Z,19.23
2019-03-29T00:40:59.259Z,19.57
2019-03-29T00:43:28.557Z,19.77
2019-03-29T00:45:56.621Z,17.13
2019-03-29T00:48:24.726Z,17.47
2019-03-29T00:50:52.839Z,18.17
2019-03-29T00:53:20.996Z,16.43
2019-03-29T00:55:49.133Z,17.50
2019-03-29T00:58:18.712Z,18.43
2019-03-29T01:00:46.977Z,17.73
2019-03-29T01:03:15.097Z,17.57
2019-03-29T01:05:43.169Z,17.00
2019-03-29T01:08:11.291Z,21.17
2019-03-29T01:10:40.509Z,16.30
2019-03-29T01:13:08.528Z,15.73
2019-03-29T01:15:36.791Z,20.50
2019-03-29T01:18:05.083Z,16.60
2019-03-29T01:20:33.246Z,21.10
2019-03-29T01:23:01.410Z,18.33
2019-03-29T01:25:29.702Z,18.67
2019-03-29T01:27:57.987Z,18.20
2019-03-29T01:30:26.077Z,19.53
2019-03-29T01:32:54.097Z,18.77
2019-03-29T01:35:22.149Z,18.10
2019-03-29T01:37:50.272Z,19.30
2019-03-29T01:40:20.127Z,18.13
2019-03-29T01:42:48.138Z,17.80
2019-03-29T01:45:16.167Z,19.60
2019-03-29T01:47:44.220Z,17.20
2019-03-29T01:50:12.379Z,16.90
2019-03-29T01:52:40.525Z,19.87
2019-03-29T01:55:08.927Z,18.77
2019-03-29T01:57:37.139Z,17.37
2019-03-29T02:00:06.632Z,18.67
2019-03-29T02:02:34.992Z,18.13
2019-03-29T02:05:03.783Z,18.50
2019-03-29T02:07:31.853Z,16.97
2019-03-29T02:10:00.000Z,19.97
2019-03-29T02:12:28.126Z,18.50
2019-03-29T02:14:56.299Z,19.27
2019-03-29T02:17:24.341Z,17.23
2019-03-29T02:19:54.192Z,15.50
2019-03-29T02:22:22.367Z,16.50
2019-03-29T02:24:50.532Z,17.17
2019-03-29T02:27:18.722Z,19.33
2019-03-29T02:29:46.809Z,18.40
2019-03-29T02:32:14.973Z,18.17
2019-03-29T02:34:43.906Z,18.87
2019-03-29T02:37:12.393Z,20.23
2019-03-29T02:39:40.482Z,19.63
2019-03-29T02:42:08.534Z,19.87
2019-03-29T02:44:36.663Z,18.33
2019-03-29T02:47:04.865Z,20.90
2019-03-29T02:49:33.018Z,19.10
2019-03-29T02:52:01.088Z,19.33
2019-03-29T02:54:29.212Z,20.03
2019-03-29T02:56:57.283Z,20.57
2019-03-29T02:59:25.391Z,20.97
2019-03-29T03:01:53.436Z,21.57
2019-03-29T03:04:22.727Z,22.53
2019-03-29T03:06:51.851Z,23.03
2019-03-29T03:09:19.938Z,23.23
2019-03-29T03:11:48.089Z,22.30
2019-03-29T03:14:16.222Z,22.60
2019-03-29T03:16:44.377Z,22.20
2019-03-29T03:19:12.571Z,20.90
2019-03-29T03:21:40.701Z,21.60
2019-03-29T03:24:08.753Z,20.87
2019-03-29T03:26:36.904Z,22.83
2019-03-29T03:29:05.112Z,23.30
2019-03-29T03:31:33.469Z,22.40
2019-03-29T03:34:01.768Z,27.10
2019-03-29T03:36:29.982Z,23.27
2019-03-29T03:38:58.245Z,22.60
2019-03-29T03:41:26.321Z,23.30
2019-03-29T03:44:13.657Z,23.90
2019-03-29T03:46:41.721Z,22.33
2019-03-29T03:49:09.838Z,24.67
2019-03-29T03:51:38.164Z,19.00
2019-03-29T03:54:06.524Z,24.13
2019-03-29T03:56:34.742Z,23.97
2019-03-29T03:59:03.197Z,23.33
2019-03-29T04:01:31.359Z,25.23
2019-03-29T04:03:59.516Z,21.33
2019-03-29T04:06:27.776Z,24.30
2019-03-29T04:08:55.954Z,24.67
2019-03-29T04:11:24.203Z,22.67
2019-03-29T04:13:52.322Z,20.03
2019-03-29T04:16:21.561Z,22.87
2019-03-29T04:18:49.711Z,21.37
2019-03-29T04:21:17.995Z,24.90
2019-03-29T04:23:46.126Z,21.10
2019-03-29T04:26:14.374Z,23.33
2019-03-29T04:28:43.144Z,22.63
2019-03-29T04:31:11.347Z,20.60
2019-03-29T04:33:39.639Z,19.73
2019-03-29T04:36:08.737Z,22.47
2019-03-29T04:38:36.994Z,22.30
2019-03-29T04:41:05.454Z,21.57
2019-03-29T04:43:33.602Z,20.07
2019-03-29T04:46:01.704Z,22.37
2019-03-29T04:48:29.878Z,21.70
2019-03-29T04:50:57.987Z,21.03
2019-03-29T04:53:25.975Z,22.13
2019-03-29T04:55:54.104Z,21.37
2019-03-29T04:58:22.183Z,20.90
2019-03-29T05:00:50.237Z,23.03
2019-03-29T05:03:18.464Z,19.33
2019-03-29T05:05:46.426Z,23.33
2019-03-29T05:08:14.359Z,21.13
2019-03-29T05:10:43.596Z,22.33
2019-03-29T05:13:11.623Z,20.57
2019-03-29T05:15:39.747Z,19.53
2019-03-29T05:18:07.954Z,20.83
2019-03-29T05:20:36.105Z,23.73
2019-03-29T05:23:04.219Z,21.63
2019-03-29T05:25:32.237Z,19.20
2019-03-29T05:28:00.369Z,21.63
2019-03-29T05:30:28.503Z,22.17
2019-03-29T05:32:56.587Z,21.10
2019-03-29T05:35:24.737Z,20.97
2019-03-29T05:37:54.683Z,16.60
2019-03-29T05:40:34.667Z,20.30
2019-03-29T05:42:54.480Z,19.00
2019-03-29T05:45:22.787Z,18.87
2019-03-29T05:47:50.832Z,20.60
2019-03-29T05:50:18.895Z,23.03
2019-03-29T05:52:46.977Z,19.70
2019-03-29T05:55:15.121Z,20.70
2019-03-29T05:57:43.216Z,24.23
2019-03-29T06:00:13.469Z,20.53
2019-03-29T06:02:41.574Z,18.03
2019-03-29T06:05:09.579Z,21.03
2019-03-29T06:07:37.696Z,22.23
2019-03-29T06:10:05.890Z,21.57
2019-03-29T06:12:34.014Z,18.20
2019-03-29T06:15:01.987Z,19.63
2019-03-29T06:17:30.135Z,22.70
2019-03-29T06:19:58.272Z,20.23
2019-03-29T06:22:26.457Z,19.30
2019-03-29T06:24:54.615Z,21.90
2019-03-29T06:27:22.716Z,21.00
2019-03-29T06:29:50.846Z,20.97
2019-03-29T06:32:18.816Z,17.73
2019-03-29T06:34:46.958Z,19.27
2019-03-29T06:37:17.587Z,21.10
2019-03-29T06:39:47.018Z,20.53
2019-03-29T06:42:14.997Z,19.20
2019-03-29T06:44:44.520Z,20.80
2019-03-29T06:47:12.626Z,24.70
2019-03-29T06:49:40.670Z,20.53
2019-03-29T06:52:08.670Z,18.97
2019-03-29T06:54:36.718Z,22.07
2019-03-29T06:57:04.851Z,25.50
2019-03-29T06:59:32.989Z,21.53
2019-03-29T07:02:01.026Z,20.33
2019-03-29T07:04:29.026Z,20.50
2019-03-29T07:06:57.076Z,18.33
2019-03-29T07:09:44.325Z,23.93
2019-03-29T07:12:12.381Z,28.27
2019-03-29T07:14:40.489Z,19.70
2019-03-29T07:17:10.348Z,19.10
2019-03-29T07:19:38.438Z,18.33
2019-03-29T07:22:06.436Z,19.80
2019-03-29T07:24:34.565Z,18.50
2019-03-29T07:27:02.693Z,20.03
2019-03-29T07:29:30.925Z,20.33
2019-03-29T07:31:58.975Z,21.83
2019-03-29T07:34:27.219Z,25.70
2019-03-29T07:36:55.221Z,20.97
2019-03-29T07:39:23.423Z,23.67
2019-03-29T07:41:51.522Z,23.20
2019-03-29T07:44:19.637Z,22.47
2019-03-29T07:46:47.933Z,21.50
2019-03-29T07:49:16.075Z,18.87
2019-03-29T07:51:44.317Z,21.97
2019-03-29T07:54:12.361Z,20.03
2019-03-29T07:56:40.469Z,23.80
2019-03-29T07:59:08.513Z,26.20
2019-03-29T08:01:36.619Z,23.90
2019-03-29T08:04:04.617Z,22.10
2019-03-29T08:06:32.769Z,26.20
2019-03-29T08:09:01.079Z,27.57
2019-03-29T08:11:40.107Z,22.83
2019-03-29T08:14:01.231Z,23.10
2019-03-29T08:16:31.159Z,21.23
2019-03-29T08:18:59.448Z,25.97
2019-03-29T08:21:27.649Z,24.60
2019-03-29T08:23:55.895Z,25.87
2019-03-29T08:26:23.870Z,22.87
2019-03-29T08:28:51.906Z,24.20
2019-03-29T08:31:20.029Z,20.43
2019-03-29T08:33:48.273Z,25.60
2019-03-29T08:36:16.307Z,23.63
2019-03-29T08:38:44.460Z,23.93
2019-03-29T08:41:12.491Z,21.77
2019-03-29T08:43:40.674Z,24.90
2019-03-29T08:46:08.660Z,22.60
2019-03-29T08:48:36.668Z,20.57
2019-03-29T08:51:04.695Z,21.83
2019-03-29T08:53:32.843Z,20.87
2019-03-29T08:56:03.203Z,21.03
2019-03-29T08:58:31.280Z,21.73
2019-03-29T09:00:59.393Z,21.07
2019-03-29T09:03:27.502Z,23.80
2019-03-29T09:05:55.651Z,24.33
2019-03-29T09:08:23.883Z,18.90
2019-03-29T09:10:52.046Z,22.87
2019-03-29T09:13:21.366Z,20.00
2019-03-29T09:15:51.291Z,19.73
2019-03-29T09:18:20.511Z,19.23
2019-03-29T09:20:48.539Z,18.93
2019-03-29T09:23:16.552Z,20.30
2019-03-29T09:25:44.785Z,19.23
2019-03-29T09:28:12.873Z,19.60
2019-03-29T09:30:40.952Z,13.23
2019-03-29T09:33:08.935Z,12.87
2019-03-29T09:35:38.148Z,13.80
2019-03-29T09:38:06.551Z,12.20
2019-03-29T09:40:34.636Z,13.03
2019-03-29T09:43:09.838Z,13.27
2019-03-29T09:45:32.737Z,14.33
2019-03-29T09:48:00.839Z,14.00
2019-03-29T09:50:28.946Z,15.13
2019-03-29T09:53:00.777Z,14.93
2019-03-29T09:55:27.012Z,14.70
2019-03-29T09:57:55.100Z,15.83
2019-03-29T10:00:23.783Z,13.53
2019-03-29T10:02:52.016Z,17.03
2019-03-29T10:05:20.580Z,15.70
2019-03-29T10:07:48.764Z,17.40
2019-03-29T10:10:16.960Z,20.20
2019-03-29T10:12:45.119Z,15.23
2019-03-29T10:15:13.216Z,17.43
2019-03-29T10:17:41.350Z,17.07
2019-03-29T10:20:09.338Z,14.63
2019-03-29T10:22:37.464Z,15.97
2019-03-29T10:25:18.475Z,15.93
2019-03-29T10:27:35.758Z,15.87
2019-03-29T10:30:04.799Z,15.60
2019-03-29T10:32:32.908Z,17.80
2019-03-29T10:35:01.098Z,15.50
2019-03-29T10:37:29.142Z,14.87
2019-03-29T10:39:57.276Z,13.00
2019-03-29T10:42:25.328Z,17.47
2019-03-29T10:44:53.464Z,13.10
2019-03-29T10:47:21.538Z,14.30
2019-03-29T10:49:49.634Z,12.93
2019-03-29T10:52:17.650Z,12.87
2019-03-29T10:54:45.777Z,12.90
2019-03-29T10:57:13.839Z,10.77
2019-03-29T10:59:41.908Z,11.00
2019-03-29T11:02:10.096Z,11.80
2019-03-29T11:04:38.246Z,12.57
2019-03-29T11:07:06.282Z,11.70
2019-03-29T11:09:36.853Z,11.33
2019-03-29T11:12:04.297Z,9.43
2019-03-29T11:14:32.325Z,11.83
2019-03-29T11:17:00.420Z,11.10
2019-03-29T11:19:28.452Z,10.63
2019-03-29T11:21:56.595Z,11.40
2019-03-29T11:24:24.606Z,12.20
2019-03-29T11:26:52.713Z,13.17
2019-03-29T11:29:20.823Z,10.07
2019-03-29T11:31:48.869Z,12.33
2019-03-29T11:34:16.871Z,11.23
2019-03-29T11:37:04.194Z,11.40
2019-03-29T11:39:32.385Z,11.40
2019-03-29T11:42:03.382Z,11.90
2019-03-29T11:44:30.527Z,11.73
2019-03-29T11:46:58.667Z,12.03
2019-03-29T11:49:26.868Z,11.80
2019-03-29T11:51:54.879Z,11.40
2019-03-29T11:54:23.189Z,11.63
2019-03-29T11:56:51.321Z,10.10
2019-03-29T11:59:19.465Z,12.20
2019-03-29T12:01:47.621Z,11.13
2019-03-29T12:04:15.858Z,12.70
2019-03-29T12:06:44.010Z,11.67
2019-03-29T12:09:12.118Z,12.47
2019-03-29T12:11:40.259Z,11.20
2019-03-29T12:14:08.313Z,9.83
2019-03-29T12:16:36.454Z,10.73
2019-03-29T12:19:04.631Z,11.97
2019-03-29T12:21:32.824Z,11.70
2019-03-29T12:24:00.984Z,12.73
2019-03-29T12:26:29.183Z,12.97
2019-03-29T12:28:57.371Z,11.53
2019-03-29T12:31:26.585Z,12.67
2019-03-29T12:33:54.901Z,15.00
2019-03-29T12:36:23.149Z,11.67
2019-03-29T12:38:51.404Z,11.30
2019-03-29T12:41:19.585Z,14.70
2019-03-29T12:43:55.596Z,11.47
2019-03-29T12:46:17.613Z,11.87
2019-03-29T12:48:45.797Z,11.90
2019-03-29T12:51:14.029Z,12.57
2019-03-29T12:53:42.263Z,12.50
2019-03-29T12:56:10.581Z,10.60
2019-03-29T12:58:38.741Z,12.40
2019-03-29T13:01:06.910Z,13.90
2019-03-29T13:03:35.907Z,12.13
2019-03-29T13:06:07.613Z,12.90
2019-03-29T13:08:35.753Z,10.50
2019-03-29T13:11:08.446Z,11.57
2019-03-29T13:13:37.688Z,13.63
2019-03-29T13:16:07.455Z,13.00
2019-03-29T13:18:38.410Z,13.63
2019-03-29T13:21:06.683Z,12.93
2019-03-29T13:23:34.885Z,12.47
2019-03-29T13:26:03.244Z,12.33
2019-03-29T13:28:32.278Z,13.03
2019-03-29T13:31:00.393Z,12.10
2019-03-29T13:33:29.865Z,11.07
2019-03-29T13:35:57.906Z,10.27
2019-03-29T13:38:26.098Z,10.37
2019-03-29T13:43:21.977Z,11.27
2019-03-29T13:45:50.084Z,11.63
2019-03-29T13:48:18.201Z,12.10
2019-03-29T13:50:46.353Z,11.33
2019-03-29T13:53:14.589Z,11.10
2019-03-29T13:55:42.694Z,10.70
2019-03-29T13:58:10.864Z,10.70
2019-03-29T14:00:39.016Z,11.67
2019-03-29T14:03:07.040Z,14.60
2019-03-29T14:05:35.146Z,11.53
2019-03-29T14:08:03.285Z,11.73
2019-03-29T14:10:32.680Z,12.17
2019-03-29T14:13:00.753Z,11.67
2019-03-29T14:15:29.879Z,10.37
2019-03-29T14:17:58.062Z,10.93
2019-03-29T14:20:33.586Z,12.30
2019-03-29T14:23:03.249Z,11.47
2019-03-29T14:25:31.446Z,11.80
2019-03-29T14:27:59.582Z,11.13
2019-03-29T14:30:27.827Z,12.73
2019-03-29T14:32:56.004Z,11.63
2019-03-29T14:35:24.116Z,10.47
2019-03-29T14:37:52.265Z,12.13
2019-03-29T14:40:32.610Z,12.07
2019-03-29T14:43:00.780Z,10.60
2019-03-29T14:45:28.778Z,10.97
2019-03-29T14:47:56.921Z,11.77
2019-03-29T14:50:25.066Z,10.37
2019-03-29T14:52:53.242Z,11.77
2019-03-29T14:55:21.473Z,11.87
2019-03-29T14:57:49.675Z,10.20
2019-03-29T15:00:34.214Z,10.57
2019-03-29T15:03:02.371Z,10.97
2019-03-29T15:05:30.510Z,10.20
2019-03-29T15:07:58.684Z,10.73
2019-03-29T15:10:27.108Z,10.30
2019-03-29T15:12:55.244Z,10.27
2019-03-29T15:15:35.216Z,9.13
2019-03-29T15:18:15.267Z,9.67
2019-03-29T15:20:53.144Z,11.60
2019-03-29T15:23:13.353Z,11.47
2019-03-29T15:25:41.460Z,12.25
2019-03-29T15:28:09.582Z,10.73
2019-03-29T15:30:37.711Z,11.13
2019-03-29T15:33:05.944Z,11.18
2019-03-29T15:35:34.111Z,11.10
2019-03-29T15:38:02.227Z,11.10
2019-03-29T15:40:30.218Z,10.35
2019-03-29T15:42:58.222Z,10.08
2019-03-29T15:45:38.471Z,10.70
2019-03-29T15:48:18.430Z,9.53
2019-03-29T15:50:46.650Z,11.85
2019-03-29T15:53:14.769Z,11.60
2019-03-29T15:55:43.005Z,10.60
2019-03-29T15:58:11.259Z,10.75
2019-03-29T16:00:39.600Z,12.70
2019-03-29T16:03:07.826Z,25.30
2019-03-29T16:05:35.977Z,10.70
2019-03-29T16:08:04.276Z,10.70
2019-03-29T16:10:32.493Z,10.53
2019-03-29T16:13:00.650Z,11.28
2019-03-29T16:15:36.338Z,10.30
2019-03-29T16:17:58.733Z,10.70
2019-03-29T16:20:27.901Z,12.25
2019-03-29T16:22:56.005Z,12.18
2019-03-29T16:25:24.147Z,9.83
2019-03-29T16:27:52.413Z,11.50
2019-03-29T16:30:21.168Z,10.20
2019-03-29T16:32:49.289Z,8.90
2019-03-29T16:35:17.499Z,9.60
2019-03-29T16:37:56.611Z,9.53
2019-03-29T16:40:15.472Z,9.78
2019-03-29T16:42:43.683Z,10.80
2019-03-29T16:45:12.160Z,9.03
2019-03-29T16:47:40.467Z,8.70
2019-03-29T16:50:08.754Z,12.83
2019-03-29T16:52:37.763Z,10.00
2019-03-29T16:55:13.168Z,11.80
2019-03-29T16:57:36.379Z,9.60
2019-03-29T17:00:06.900Z,9.80
2019-03-29T17:02:36.904Z,10.00
2019-03-29T17:05:05.208Z,10.03
2019-03-29T17:07:33.372Z,8.93
2019-03-29T17:10:01.387Z,11.90
2019-03-29T17:12:29.546Z,11.50
2019-03-29T17:14:57.600Z,15.00
2019-03-29T17:17:25.727Z,8.40
2019-03-29T17:19:53.915Z,11.93
2019-03-29T17:22:21.886Z,8.87
2019-03-29T17:24:56.729Z,10.47
2019-03-29T17:27:19.909Z,10.47
2019-03-29T17:29:48.111Z,10.53
2019-03-29T17:32:16.275Z,10.37
2019-03-29T17:34:44.448Z,11.07
2019-03-29T17:37:12.390Z,10.63
2019-03-29T17:39:40.403Z,11.00
2019-03-29T17:42:08.526Z,10.57
2019-03-29T17:44:36.507Z,11.17
2019-03-29T17:47:04.637Z,10.53
2019-03-29T17:49:32.616Z,13.47
2019-03-29T17:52:00.819Z,10.30
2019-03-29T17:54:28.952Z,9.47
2019-03-29T17:56:57.038Z,11.53
2019-03-29T17:59:25.447Z,10.37
2019-03-29T18:01:53.807Z,10.90
2019-03-29T18:04:22.038Z,12.97
2019-03-29T18:06:50.238Z,12.37
2019-03-29T18:09:18.447Z,12.53
2019-03-29T18:11:46.692Z,12.67
2019-03-29T18:14:15.041Z,11.80
2019-03-29T18:16:43.208Z,10.67
2019-03-29T18:19:11.854Z,12.60
2019-03-29T18:21:40.114Z,13.03
2019-03-29T18:24:08.509Z,11.77
2019-03-29T18:26:36.659Z,12.77
2019-03-29T18:29:04.845Z,11.67
2019-03-29T18:31:33.148Z,15.03
2019-03-29T18:34:01.737Z,12.67
2019-03-29T18:36:30.126Z,11.10
2019-03-29T18:38:58.330Z,11.00
2019-03-29T18:41:27.565Z,11.67
2019-03-29T18:44:00.198Z,13.73
2019-03-29T18:46:28.348Z,13.63
2019-03-29T18:48:56.385Z,11.37
2019-03-29T18:51:24.544Z,12.90
2019-03-29T18:53:52.716Z,12.63
2019-03-29T18:56:40.085Z,13.37
2019-03-29T18:59:10.017Z,11.90
2019-03-29T19:01:38.130Z,12.40
2019-03-29T19:04:06.322Z,14.30
2019-03-29T19:06:37.831Z,13.57
2019-03-29T19:09:08.936Z,13.23
2019-03-29T19:11:38.144Z,14.00
2019-03-29T19:14:06.712Z,12.40
2019-03-29T19:16:58.325Z,13.07
2019-03-29T19:19:18.274Z,11.97
2019-03-29T19:21:46.619Z,11.90
2019-03-29T19:24:14.761Z,11.20
2019-03-29T19:26:44.761Z,13.60
2019-03-29T19:29:12.974Z,11.40
2019-03-29T19:31:41.269Z,16.67
2019-03-29T19:34:09.695Z,13.57
2019-03-29T19:36:40.927Z,14.33
2019-03-29T19:39:09.189Z,13.47
2019-03-29T19:41:37.387Z,13.37
2019-03-29T19:44:05.607Z,12.67
2019-03-29T19:46:33.725Z,14.73
2019-03-29T19:49:02.845Z,13.87
2019-03-29T19:51:31.009Z,13.27
2019-03-29T19:54:07.112Z,13.07
2019-03-29T19:56:29.514Z,12.37
2019-03-29T19:58:57.819Z,13.37
2019-03-29T20:01:26.198Z,14.10
2019-03-29T20:03:55.536Z,11.33
2019-03-29T20:06:25.770Z,12.37
2019-03-29T20:08:53.777Z,12.13
2019-03-29T20:11:22.088Z,11.67
2019-03-29T20:13:50.288Z,11.53
2019-03-29T20:16:18.491Z,10.80
2019-03-29T20:18:46.836Z,11.73
2019-03-29T20:21:15.026Z,12.00
2019-03-29T20:23:43.229Z,12.73
2019-03-29T20:26:11.396Z,14.07
2019-03-29T20:28:39.577Z,13.50
2019-03-29T20:31:07.786Z,12.03
2019-03-29T20:33:37.690Z,13.33
2019-03-29T20:36:06.004Z,13.03
2019-03-29T20:38:34.434Z,12.53
2019-03-29T20:41:03.816Z,11.10
2019-03-29T20:43:31.969Z,13.07
2019-03-29T20:46:01.346Z,12.70
2019-03-29T20:48:29.486Z,14.53
2019-03-29T20:50:57.852Z,13.47
2019-03-29T20:53:26.030Z,16.27
2019-03-29T20:55:54.237Z,13.03
2019-03-29T20:58:22.643Z,12.13
2019-03-29T21:00:50.740Z,12.87
2019-03-29T21:03:18.898Z,14.20
2019-03-29T21:05:47.042Z,11.30
2019-03-29T21:08:16.550Z,12.97
2019-03-29T21:13:14.047Z,28.93
2019-03-29T21:15:42.230Z,21.00
2019-03-29T21:18:10.401Z,19.10
2019-03-29T21:20:38.443Z,15.20
2019-03-29T21:23:06.532Z,16.57
2019-03-29T21:25:34.763Z,16.70
2019-03-29T21:28:04.051Z,15.20
2019-03-29T21:30:32.189Z,12.00
2019-03-29T21:33:00.493Z,13.47
2019-03-29T21:35:28.623Z,13.77
2019-03-29T21:37:56.879Z,15.37
2019-03-29T21:40:25.027Z,17.77
2019-03-29T21:42:53.117Z,14.00
2019-03-29T21:45:28.605Z,13.77
2019-03-29T21:48:04.661Z,17.40
2019-03-29T21:50:21.299Z,16.73
2019-03-29T21:52:49.507Z,16.90
2019-03-29T21:55:19.499Z,14.13
2019-03-29T21:57:47.630Z,14.93
2019-03-29T22:00:18.847Z,19.43
2019-03-29T22:02:47.380Z,13.40
2019-03-29T22:05:16.876Z,12.80
2019-03-29T22:07:45.071Z,14.63
2019-03-29T22:10:13.209Z,14.13
2019-03-29T22:12:43.121Z,15.50
2019-03-29T22:15:11.533Z,18.97
2019-03-29T22:17:39.783Z,20.17
2019-03-29T22:20:09.273Z,14.87
2019-03-29T22:22:37.554Z,17.17
2019-03-29T22:25:06.207Z,21.43
2019-03-29T22:27:34.545Z,21.00
2019-03-29T22:30:02.710Z,16.63
2019-03-29T22:32:30.994Z,19.83
2019-03-29T22:34:59.184Z,19.07
2019-03-29T22:37:27.354Z,16.37
2019-03-29T22:39:55.533Z,16.97
2019-03-29T22:42:23.978Z,16.77
2019-03-29T22:44:52.180Z,15.13
2019-03-29T22:47:20.378Z,17.33
2019-03-29T22:49:48.472Z,14.03
2019-03-29T22:52:16.536Z,16.70
2019-03-29T22:54:44.704Z,17.87
2019-03-29T22:57:12.889Z,17.87
2019-03-29T22:59:40.939Z,17.63
2019-03-29T23:02:09.416Z,16.80
2019-03-29T23:04:37.639Z,15.20
2019-03-29T23:07:05.691Z,17.90
2019-03-29T23:09:33.870Z,18.90
2019-03-29T23:12:02.025Z,18.03
2019-03-29T23:14:30.248Z,15.10
2019-03-29T23:16:58.408Z,16.33
2019-03-29T23:19:26.469Z,19.13
2019-03-29T23:21:55.572Z,16.07
2019-03-29T23:24:23.674Z,18.77
2019-03-29T23:26:51.795Z,17.40
2019-03-29T23:29:19.828Z,20.07
2019-03-29T23:31:48.213Z,15.43
2019-03-29T23:34:16.418Z,17.77
2019-03-29T23:36:44.600Z,19.53
2019-03-29T23:39:12.716Z,18.10
2019-03-29T23:41:40.850Z,15.10
2019-03-29T23:44:09.044Z,17.33
2019-03-29T23:46:37.239Z,17.03
2019-03-29T23:49:05.380Z,18.93
2019-03-29T23:51:33.488Z,17.83
2019-03-29T23:54:01.599Z,17.83
2019-03-29T23:56:29.749Z,19.30
2019-03-29T23:58:57.907Z,19.00
